Time;durP1;ratioP1;P1;durP2;ratioP2;P2;SDS_P1;SDS_P2;PMS_P1;PMS_P2;Temp;Humidity;BMP_temperature;BMP_pressure;BME280_temperature;BME280_humidity;BME280_pressure;Samples;Min_cycle;Max_cycle;Signal;HPM_P1;HPM_P2
2023/11/08 00:00:39;;;;;;;6.10;4.35;;;8.40;99.90;;;;;;4998144;28;20037;-72
2023/11/08 00:03:06;;;;;;;6.35;3.95;;;8.40;99.90;;;;;;5030496;28;20038;-72
2023/11/08 00:05:33;;;;;;;5.68;3.42;;;8.30;99.90;;;;;;4998379;28;20030;-72
2023/11/08 00:07:59;;;;;;;6.65;4.40;;;8.40;99.90;;;;;;4997041;28;20795;-72
2023/11/08 00:10:25;;;;;;;8.30;3.75;;;8.30;99.90;;;;;;4980524;28;20041;-72
2023/11/08 00:12:51;;;;;;;5.45;4.13;;;8.30;99.90;;;;;;4999548;28;20374;-72
2023/11/08 00:15:18;;;;;;;5.80;4.50;;;8.20;99.90;;;;;;4981617;28;20041;-71
2023/11/08 00:17:45;;;;;;;5.18;4.03;;;8.20;99.90;;;;;;4997289;28;20041;-72
2023/11/08 00:20:12;;;;;;;6.30;4.75;;;8.20;99.90;;;;;;4979850;28;20053;-72
2023/11/08 00:22:38;;;;;;;10.10;6.00;;;8.20;99.90;;;;;;4965804;28;20680;-73
2023/11/08 00:25:05;;;;;;;8.82;5.43;;;8.20;99.90;;;;;;4998805;28;20029;-73
2023/11/08 00:27:32;;;;;;;7.95;5.20;;;8.20;99.90;;;;;;5013332;28;20851;-72
2023/11/08 00:29:58;;;;;;;5.22;3.97;;;8.20;99.90;;;;;;4996432;28;20716;-72
2023/11/08 00:32:25;;;;;;;6.03;4.72;;;8.30;99.90;;;;;;4999650;28;20030;-73
2023/11/08 00:34:51;;;;;;;6.15;4.15;;;8.30;99.90;;;;;;4997251;28;20033;-72
2023/11/08 00:37:18;;;;;;;4.93;4.43;;;8.30;99.90;;;;;;4997874;28;20026;-72
2023/11/08 00:39:45;;;;;;;9.45;4.53;;;8.30;99.90;;;;;;4980593;28;20636;-72
2023/11/08 00:42:11;;;;;;;8.57;5.07;;;8.30;99.90;;;;;;4977258;28;20203;-75
2023/11/08 00:44:37;;;;;;;11.40;5.32;;;8.30;99.90;;;;;;4980486;28;20045;-73
2023/11/08 00:47:04;;;;;;;5.25;4.47;;;8.30;99.90;;;;;;4996671;28;20030;-72
2023/11/08 00:49:30;;;;;;;5.68;3.67;;;8.30;99.90;;;;;;4994664;28;20038;-72
2023/11/08 00:52:00;;;;;;;6.07;4.75;;;8.30;99.90;;;;;;4996105;28;20469;-72
2023/11/08 00:54:33;;;;;;;6.60;3.35;;;8.30;99.90;;;;;;4996513;28;20897;-71
2023/11/08 00:57:00;;;;;;;7.97;4.40;;;8.30;99.90;;;;;;4995854;28;20132;-72
2023/11/08 00:59:27;;;;;;;7.65;4.68;;;8.30;99.90;;;;;;4981525;28;20033;-71
2023/11/08 01:01:53;;;;;;;6.15;3.10;;;8.30;99.90;;;;;;5010614;28;20041;-72
2023/11/08 01:04:19;;;;;;;6.63;2.97;;;8.30;99.90;;;;;;4997026;28;20064;-72
2023/11/08 01:06:46;;;;;;;7.13;4.28;;;8.20;99.90;;;;;;4996672;28;20025;-72
2023/11/08 01:09:15;;;;;;;4.32;2.80;;;8.30;99.90;;;;;;4995942;28;20021;-72
2023/11/08 01:11:42;;;;;;;5.72;4.28;;;8.20;99.90;;;;;;4997059;28;20038;-71
2023/11/08 01:14:09;;;;;;;6.28;3.70;;;8.20;99.90;;;;;;5011855;28;20029;-72
2023/11/08 01:16:36;;;;;;;4.88;3.50;;;8.20;99.90;;;;;;4996348;28;20029;-72
2023/11/08 01:19:03;;;;;;;6.13;3.72;;;8.20;99.90;;;;;;4996741;28;20037;-72
2023/11/08 01:21:29;;;;;;;7.03;3.50;;;8.20;99.90;;;;;;4995172;28;20552;-72
2023/11/08 01:23:56;;;;;;;5.90;3.08;;;8.20;99.90;;;;;;5027945;28;20025;-72
2023/11/08 01:26:22;;;;;;;6.68;3.72;;;8.20;99.90;;;;;;5026646;28;20041;-72
2023/11/08 01:28:49;;;;;;;4.40;2.92;;;8.20;99.90;;;;;;4997989;28;20042;-72
2023/11/08 01:31:15;;;;;;;6.25;3.42;;;8.30;99.90;;;;;;4979788;28;20698;-72
2023/11/08 01:33:41;;;;;;;6.38;4.10;;;8.30;99.90;;;;;;4978623;28;20444;-72
2023/11/08 01:36:08;;;;;;;5.75;3.53;;;8.40;99.90;;;;;;4982037;28;20028;-72
2023/11/08 01:38:35;;;;;;;7.07;4.20;;;8.40;99.90;;;;;;5028618;28;20037;-72
2023/11/08 01:41:02;;;;;;;7.47;4.03;;;8.40;99.90;;;;;;4996572;28;21289;-72
2023/11/08 01:43:30;;;;;;;4.35;3.83;;;8.40;99.90;;;;;;4980662;28;20064;-72
2023/11/08 01:46:24;;;;;;;6.32;3.45;;;8.50;99.90;;;;;;4997804;28;20029;-72
2023/11/08 01:48:54;;;;;;;6.72;4.78;;;8.50;99.90;;;;;;4996433;28;20032;-71
2023/11/08 01:51:21;;;;;;;7.28;3.90;;;8.50;99.90;;;;;;4964637;28;20028;-72
2023/11/08 01:53:51;;;;;;;6.60;4.03;;;8.50;99.90;;;;;;5011221;28;20030;-72
2023/11/08 01:56:19;;;;;;;8.27;5.22;;;8.50;99.90;;;;;;5012557;28;20040;-72
2023/11/08 01:58:47;;;;;;;6.82;4.07;;;8.50;99.90;;;;;;5027606;28;20042;-72
2023/11/08 02:01:14;;;;;;;6.03;3.78;;;8.50;99.90;;;;;;5012553;28;20053;-72
2023/11/08 02:03:41;;;;;;;6.30;4.13;;;8.50;99.90;;;;;;5026723;28;20040;-72
2023/11/08 02:06:10;;;;;;;4.63;3.83;;;8.60;99.90;;;;;;4997449;28;20026;-72
2023/11/08 02:08:40;;;;;;;6.82;4.57;;;8.60;99.90;;;;;;4964427;28;20038;-72
2023/11/08 02:11:07;;;;;;;6.85;4.47;;;8.60;99.90;;;;;;4979492;28;20030;-73
2023/11/08 02:13:34;;;;;;;7.32;5.15;;;8.70;99.90;;;;;;4978628;28;20049;-72
2023/11/08 02:16:01;;;;;;;5.15;4.40;;;8.60;99.90;;;;;;4995430;28;20453;-73
2023/11/08 02:18:30;;;;;;;6.65;4.82;;;8.60;99.90;;;;;;4980578;28;20025;-72
2023/11/08 02:21:01;;;;;;;7.72;5.45;;;8.70;99.90;;;;;;4996250;28;20037;-72
2023/11/08 02:23:31;;;;;;;7.40;4.97;;;8.70;99.90;;;;;;5028203;28;20429;-72
2023/11/08 02:25:57;;;;;;;7.97;5.65;;;8.70;99.90;;;;;;4995871;28;20048;-72
2023/11/08 02:28:24;;;;;;;9.75;6.18;;;8.70;99.90;;;;;;4995589;28;20026;-72
2023/11/08 02:30:54;;;;;;;7.93;4.43;;;8.70;99.90;;;;;;4980010;28;20026;-72
2023/11/08 02:33:21;;;;;;;6.00;4.15;;;8.70;99.90;;;;;;5011886;28;20238;-72
2023/11/08 02:35:47;;;;;;;5.25;4.68;;;8.70;99.90;;;;;;4979885;28;20399;-72
2023/11/08 02:38:14;;;;;;;5.97;4.03;;;8.70;99.90;;;;;;5009190;28;20037;-72
2023/11/08 02:40:44;;;;;;;6.88;4.03;;;8.70;99.90;;;;;;4978012;28;20038;-72
2023/11/08 02:43:11;;;;;;;7.10;4.60;;;8.70;99.90;;;;;;4995812;28;20033;-72
2023/11/08 02:45:38;;;;;;;6.47;4.80;;;8.70;99.90;;;;;;5002067;28;20461;-72
2023/11/08 02:48:08;;;;;;;8.40;4.90;;;8.70;99.90;;;;;;5001592;28;20591;-72
2023/11/08 02:50:37;;;;;;;6.72;5.18;;;8.70;99.90;;;;;;4982347;28;20076;-72
2023/11/08 02:53:04;;;;;;;7.85;5.55;;;8.70;99.90;;;;;;5012149;28;20057;-73
2023/11/08 02:55:32;;;;;;;12.40;8.57;;;8.70;99.90;;;;;;4999174;28;20033;-72
2023/11/08 02:57:58;;;;;;;7.97;4.97;;;8.70;99.90;;;;;;4983014;28;20464;-72
2023/11/08 03:00:25;;;;;;;7.07;4.72;;;8.70;99.90;;;;;;5030592;28;20381;-72
2023/11/08 03:02:52;;;;;;;7.68;4.57;;;8.70;99.90;;;;;;4999409;28;20030;-72
2023/11/08 03:05:21;;;;;;;9.02;5.80;;;8.70;99.90;;;;;;5000810;28;20026;-72
2023/11/08 03:07:50;;;;;;;6.20;5.10;;;8.70;99.90;;;;;;4998828;28;20260;-72
2023/11/08 03:10:17;;;;;;;8.98;6.00;;;8.70;99.90;;;;;;5000140;28;20380;-72
2023/11/08 03:12:50;;;;;;;12.52;10.88;;;8.70;99.90;;;;;;5000653;28;20029;-72
2023/11/08 03:15:21;;;;;;;12.75;9.50;;;8.70;99.90;;;;;;4998057;28;20033;-73
2023/11/08 03:17:49;;;;;;;9.90;8.35;;;8.70;99.90;;;;;;4997781;28;20041;-72
2023/11/08 03:20:16;;;;;;;9.82;7.43;;;8.70;99.90;;;;;;4980582;28;20070;-72
2023/11/08 03:22:43;;;;;;;8.20;6.85;;;8.70;99.90;;;;;;4998430;28;20038;-73
2023/11/08 03:25:11;;;;;;;10.18;6.82;;;8.70;99.90;;;;;;4999389;28;20030;-73
2023/11/08 03:27:41;;;;;;;6.07;5.47;;;8.70;99.90;;;;;;4981249;28;20945;-72
2023/11/08 03:30:10;;;;;;;9.30;6.60;;;8.70;99.90;;;;;;4980848;28;20041;-72
2023/11/08 03:32:37;;;;;;;7.22;6.53;;;8.70;99.90;;;;;;5002172;28;20038;-73
2023/11/08 03:35:04;;;;;;;9.43;6.80;;;8.70;99.90;;;;;;4998916;28;20029;-72
2023/11/08 03:37:33;;;;;;;11.30;8.07;;;8.70;99.90;;;;;;4998707;28;20030;-73
2023/11/08 03:40:02;;;;;;;8.48;6.40;;;8.70;99.90;;;;;;4981164;28;20038;-72
2023/11/08 03:42:28;;;;;;;9.13;6.22;;;8.70;99.90;;;;;;5011690;28;20049;-73
2023/11/08 03:44:55;;;;;;;8.15;6.97;;;8.70;99.90;;;;;;4965428;28;20490;-72
2023/11/08 03:47:22;;;;;;;10.18;6.65;;;8.70;99.90;;;;;;4982396;28;20354;-72
2023/11/08 03:49:48;;;;;;;8.95;6.95;;;8.70;99.90;;;;;;4998631;28;20507;-72
2023/11/08 03:52:14;;;;;;;10.50;7.28;;;8.60;99.90;;;;;;4982244;28;20050;-73
2023/11/08 03:54:40;;;;;;;9.55;6.15;;;8.70;99.90;;;;;;4998004;28;20500;-72
2023/11/08 03:57:06;;;;;;;8.88;6.80;;;8.70;99.90;;;;;;4997571;28;20500;-72
2023/11/08 03:59:34;;;;;;;7.68;5.93;;;8.70;99.90;;;;;;4998536;28;20040;-73
2023/11/08 04:02:00;;;;;;;7.05;5.93;;;8.70;99.90;;;;;;4981672;28;20053;-73
2023/11/08 04:04:26;;;;;;;8.75;7.10;;;8.70;99.90;;;;;;5014581;28;20038;-73
2023/11/08 04:06:53;;;;;;;9.02;6.05;;;8.70;99.90;;;;;;4982210;28;20029;-73
2023/11/08 04:09:20;;;;;;;7.85;5.25;;;8.70;99.90;;;;;;5013435;28;20598;-72
2023/11/08 04:11:46;;;;;;;7.88;5.20;;;8.70;99.90;;;;;;4980948;28;20030;-72
2023/11/08 04:14:12;;;;;;;6.93;5.63;;;8.70;99.90;;;;;;4999567;28;20026;-72
2023/11/08 04:16:39;;;;;;;6.45;5.07;;;8.70;99.90;;;;;;4998673;28;20026;-72
2023/11/08 04:19:07;;;;;;;6.72;4.03;;;8.70;99.90;;;;;;4997765;28;20037;-73
2023/11/08 04:21:34;;;;;;;7.55;5.32;;;8.70;99.90;;;;;;4981077;28;20326;-73
2023/11/08 04:24:01;;;;;;;7.63;4.43;;;8.70;99.90;;;;;;4997926;28;20381;-72
2023/11/08 04:26:29;;;;;;;7.88;4.25;;;8.70;99.90;;;;;;4998221;28;20476;-73
2023/11/08 04:28:58;;;;;;;6.68;3.92;;;8.70;99.90;;;;;;4996799;28;20029;-74
2023/11/08 04:31:24;;;;;;;14.32;5.20;;;8.70;99.90;;;;;;4981294;28;20026;-72
2023/11/08 04:33:51;;;;;;;8.65;4.55;;;8.70;99.90;;;;;;4999619;28;20041;-73
2023/11/08 04:36:17;;;;;;;6.80;4.15;;;8.70;99.90;;;;;;4980949;28;20484;-72
2023/11/08 04:38:45;;;;;;;6.28;4.35;;;8.70;99.90;;;;;;4998358;28;20380;-73
2023/11/08 04:41:15;;;;;;;6.10;3.78;;;8.70;99.90;;;;;;4995806;28;20033;-72
2023/11/08 04:43:42;;;;;;;6.25;3.85;;;8.70;99.90;;;;;;4998551;28;20372;-73
2023/11/08 04:46:11;;;;;;;7.35;4.00;;;8.70;99.90;;;;;;4993284;28;20454;-72
2023/11/08 04:48:38;;;;;;;7.53;3.92;;;8.70;99.90;;;;;;4981121;28;20030;-73
2023/11/08 04:51:04;;;;;;;7.60;4.43;;;8.70;99.90;;;;;;4995398;28;20053;-72
2023/11/08 04:53:31;;;;;;;6.20;3.90;;;8.70;99.90;;;;;;4997303;28;20060;-73
2023/11/08 04:55:57;;;;;;;6.25;4.05;;;8.70;99.90;;;;;;4979980;28;20384;-73
2023/11/08 04:58:24;;;;;;;6.55;3.95;;;8.70;99.90;;;;;;4980767;28;20431;-73
2023/11/08 05:00:50;;;;;;;6.53;4.20;;;8.70;99.90;;;;;;4996837;28;20045;-72
2023/11/08 05:03:17;;;;;;;8.40;3.95;;;8.70;99.90;;;;;;4979749;28;20041;-73
2023/11/08 05:05:43;;;;;;;9.18;4.32;;;8.70;99.90;;;;;;4995858;28;20050;-73
2023/11/08 05:08:09;;;;;;;8.40;4.65;;;8.70;99.90;;;;;;4997331;28;20029;-73
2023/11/08 05:10:36;;;;;;;5.70;3.47;;;8.70;99.90;;;;;;4979577;28;20026;-73
2023/11/08 05:13:02;;;;;;;8.73;3.90;;;8.70;99.90;;;;;;4981001;28;20032;-72
2023/11/08 05:15:29;;;;;;;5.97;3.65;;;8.70;99.90;;;;;;4979564;28;20473;-72
2023/11/08 05:17:57;;;;;;;7.40;4.18;;;8.70;99.90;;;;;;4997009;28;20034;-73
2023/11/08 05:20:25;;;;;;;6.53;3.40;;;8.70;99.90;;;;;;4996423;28;20034;-72
2023/11/08 05:22:53;;;;;;;5.63;3.33;;;8.60;99.90;;;;;;4981262;28;20370;-73
2023/11/08 05:25:20;;;;;;;6.85;3.42;;;8.60;99.90;;;;;;5012362;28;20036;-72
2023/11/08 05:27:46;;;;;;;8.52;3.45;;;8.60;99.90;;;;;;4998144;28;20066;-73
2023/11/08 05:30:15;;;;;;;5.78;3.38;;;8.60;99.90;;;;;;4997344;28;20036;-73
2023/11/08 05:32:45;;;;;;;6.95;3.35;;;8.60;99.90;;;;;;4998489;28;20368;-73
2023/11/08 05:35:14;;;;;;;8.43;3.35;;;8.60;99.90;;;;;;4979727;28;20033;-73
2023/11/08 05:37:44;;;;;;;7.32;2.92;;;8.60;99.90;;;;;;5010617;28;20376;-72
2023/11/08 05:40:12;;;;;;;6.60;3.10;;;8.60;99.90;;;;;;5012400;28;20041;-73
2023/11/08 05:42:39;;;;;;;4.30;2.55;;;8.60;99.90;;;;;;4996235;28;20503;-73
2023/11/08 05:45:08;;;;;;;8.55;3.80;;;8.60;99.90;;;;;;5012967;28;21868;-73
2023/11/08 05:47:38;;;;;;;9.32;5.20;;;8.50;99.90;;;;;;4979751;28;20064;-73
2023/11/08 05:50:09;;;;;;;8.48;4.32;;;8.50;99.90;;;;;;5026399;28;20386;-73
2023/11/08 05:52:36;;;;;;;7.38;4.00;;;8.50;99.90;;;;;;4996546;28;20034;-73
2023/11/08 05:55:03;;;;;;;6.15;3.38;;;8.50;99.90;;;;;;4998168;28;20681;-73
2023/11/08 05:57:29;;;;;;;7.13;3.38;;;8.50;99.90;;;;;;5013019;28;20038;-73
2023/11/08 05:59:56;;;;;;;6.85;3.70;;;8.50;99.90;;;;;;4995362;28;20042;-72
2023/11/08 06:02:22;;;;;;;5.70;3.35;;;8.50;99.90;;;;;;5010643;28;20072;-73
2023/11/08 06:04:49;;;;;;;8.05;2.80;;;8.50;99.90;;;;;;4997388;28;20030;-73
2023/11/08 06:07:15;;;;;;;7.10;3.35;;;8.50;99.90;;;;;;4979001;28;20567;-73
2023/11/08 06:09:43;;;;;;;7.20;3.90;;;8.50;99.90;;;;;;4995140;28;20084;-73
2023/11/08 06:12:09;;;;;;;5.68;2.67;;;8.50;99.90;;;;;;4995241;28;20102;-73
2023/11/08 06:14:36;;;;;;;4.85;2.92;;;8.50;99.90;;;;;;4997481;28;20022;-72
2023/11/08 06:17:02;;;;;;;9.98;2.58;;;8.50;99.90;;;;;;5015445;28;20033;-73
2023/11/08 06:19:28;;;;;;;5.80;2.50;;;8.50;99.90;;;;;;4978063;28;20037;-73
2023/11/08 06:21:55;;;;;;;8.15;2.90;;;8.50;99.90;;;;;;4996949;28;20045;-74
2023/11/08 06:24:21;;;;;;;5.95;2.30;;;8.40;99.90;;;;;;4996015;28;20030;-73
2023/11/08 06:26:47;;;;;;;7.82;2.78;;;8.40;99.90;;;;;;4978128;28;20025;-72
2023/11/08 06:29:14;;;;;;;7.38;2.42;;;8.40;99.90;;;;;;4962412;28;20453;-72
2023/11/08 06:31:40;;;;;;;5.40;2.33;;;8.30;99.90;;;;;;4980209;28;20524;-73
2023/11/08 06:34:09;;;;;;;5.93;2.35;;;8.20;99.90;;;;;;4964155;28;20046;-72
2023/11/08 06:36:36;;;;;;;4.88;1.88;;;8.10;99.90;;;;;;4995997;28;20049;-72
2023/11/08 06:39:02;;;;;;;7.03;2.10;;;8.10;99.90;;;;;;4978477;28;20420;-73
2023/11/08 06:41:29;;;;;;;4.35;2.55;;;8.00;99.90;;;;;;4978540;28;20028;-72
2023/11/08 06:43:56;;;;;;;10.40;2.47;;;8.00;99.90;;;;;;4963426;28;20037;-73
2023/11/08 06:46:22;;;;;;;4.75;2.10;;;8.00;99.90;;;;;;5010928;28;20041;-73
2023/11/08 06:48:49;;;;;;;6.05;1.83;;;8.00;99.90;;;;;;4994665;28;20041;-73
2023/11/08 06:51:16;;;;;;;4.72;1.85;;;7.90;99.90;;;;;;4977609;28;20030;-73
2023/11/08 06:53:44;;;;;;;4.65;2.25;;;7.90;99.90;;;;;;4978165;28;20041;-72
2023/11/08 06:56:12;;;;;;;4.20;1.88;;;7.90;99.90;;;;;;5010257;28;20056;-72
2023/11/08 06:58:38;;;;;;;5.65;1.70;;;7.80;99.90;;;;;;4979004;28;20600;-72
2023/11/08 07:01:07;;;;;;;3.97;1.15;;;7.80;99.90;;;;;;4993616;28;20042;-72
2023/11/08 07:03:34;;;;;;;3.47;1.10;;;7.80;99.90;;;;;;5010747;28;20037;-72
2023/11/08 07:06:04;;;;;;;5.25;1.95;;;7.70;99.90;;;;;;4994442;28;20052;-72
2023/11/08 07:08:32;;;;;;;5.85;1.77;;;7.80;99.90;;;;;;4978492;28;20034;-72
2023/11/08 07:10:59;;;;;;;4.30;1.38;;;7.70;99.90;;;;;;4994809;28;20041;-72
2023/11/08 07:13:26;;;;;;;8.07;1.77;;;7.70;99.90;;;;;;4976993;28;20029;-72
2023/11/08 07:15:53;;;;;;;3.30;1.45;;;7.70;99.90;;;;;;4995106;28;20029;-72
2023/11/08 07:18:19;;;;;;;4.78;1.20;;;7.70;99.90;;;;;;4979936;28;20034;-72
2023/11/08 07:20:45;;;;;;;7.22;1.95;;;7.70;99.90;;;;;;4977552;28;20508;-73
2023/11/08 07:23:12;;;;;;;4.70;1.85;;;7.60;99.90;;;;;;4993993;28;20029;-73
2023/11/08 07:25:38;;;;;;;5.05;1.52;;;7.70;99.90;;;;;;4996207;28;20041;-73
2023/11/08 07:28:06;;;;;;;5.20;1.45;;;7.60;99.90;;;;;;4978062;28;20038;-73
2023/11/08 07:30:34;;;;;;;7.78;1.42;;;7.60;99.90;;;;;;4996145;28;20045;-73
2023/11/08 07:33:00;;;;;;;5.47;1.73;;;7.60;99.90;;;;;;4966014;28;20030;-72
2023/11/08 07:35:27;;;;;;;4.88;1.30;;;7.60;99.90;;;;;;4982939;28;20034;-72
2023/11/08 07:37:54;;;;;;;3.88;1.55;;;7.70;99.90;;;;;;4999227;28;20042;-72
2023/11/08 07:40:21;;;;;;;6.32;1.98;;;7.70;99.90;;;;;;4999107;28;20270;-72
2023/11/08 07:42:48;;;;;;;3.55;1.58;;;7.70;99.90;;;;;;4999845;28;20377;-72
2023/11/08 07:45:15;;;;;;;4.05;1.60;;;7.70;99.90;;;;;;4998079;28;20376;-72
2023/11/08 07:47:41;;;;;;;5.35;1.45;;;7.70;99.90;;;;;;4983691;28;20373;-72
2023/11/08 07:50:08;;;;;;;5.40;1.50;;;7.70;99.90;;;;;;4997549;28;20032;-73
2023/11/08 07:52:35;;;;;;;3.67;1.52;;;7.80;99.90;;;;;;4997847;28;20054;-72
2023/11/08 07:55:01;;;;;;;6.38;1.65;;;7.80;99.90;;;;;;4997636;28;20038;-72
2023/11/08 07:57:27;;;;;;;5.45;2.42;;;7.80;99.90;;;;;;4981799;28;20516;-72
2023/11/08 07:59:54;;;;;;;3.90;1.33;;;7.80;99.90;;;;;;4998078;28;20507;-73
2023/11/08 08:02:21;;;;;;;8.95;1.73;;;7.80;99.90;;;;;;4981091;28;20045;-72
2023/11/08 08:04:47;;;;;;;3.95;1.08;;;7.70;99.90;;;;;;4996755;28;20050;-72
2023/11/08 08:07:13;;;;;;;2.95;1.45;;;7.80;99.90;;;;;;4999650;28;20049;-72
2023/11/08 08:09:40;;;;;;;1.88;1.02;;;7.80;99.90;;;;;;4996745;28;20049;-73
2023/11/08 08:12:07;;;;;;;6.28;1.30;;;7.80;99.90;;;;;;4998459;28;20045;-73
2023/11/08 08:14:33;;;;;;;3.28;1.10;;;7.90;99.90;;;;;;4981142;28;20034;-72
2023/11/08 08:17:02;;;;;;;5.55;1.63;;;7.90;99.90;;;;;;4981912;28;20380;-72
2023/11/08 08:19:31;;;;;;;4.97;1.30;;;8.00;99.90;;;;;;4998359;28;20428;-73
2023/11/08 08:22:00;;;;;;;6.13;1.75;;;8.00;99.90;;;;;;4998985;28;20345;-72
2023/11/08 08:24:27;;;;;;;5.60;1.73;;;8.00;99.90;;;;;;4979298;28;20045;-72
2023/11/08 08:26:56;;;;;;;7.10;1.85;;;8.10;99.90;;;;;;4996853;28;20492;-72
2023/11/08 08:29:24;;;;;;;7.68;1.27;;;8.20;99.90;;;;;;4995002;28;20783;-74
2023/11/08 08:31:50;;;;;;;7.05;1.80;;;8.30;99.90;;;;;;4980129;28;20731;-74
2023/11/08 08:34:17;;;;;;;3.85;1.35;;;8.40;99.90;;;;;;4981670;28;20136;-73
2023/11/08 08:36:43;;;;;;;5.03;2.00;;;8.40;99.90;;;;;;4981764;28;20046;-73
2023/11/08 08:39:10;;;;;;;7.07;2.53;;;8.50;99.90;;;;;;4997088;28;20076;-74
2023/11/08 08:41:36;;;;;;;8.65;3.42;;;8.60;99.90;;;;;;4962291;28;20478;-74
2023/11/08 08:44:03;;;;;;;6.90;2.60;;;8.60;99.90;;;;;;4980236;28;20033;-73
2023/11/08 08:46:30;;;;;;;4.30;1.90;;;8.60;99.90;;;;;;4980035;28;20038;-73
2023/11/08 08:48:56;;;;;;;5.18;2.13;;;8.70;99.90;;;;;;4996249;28;20503;-73
2023/11/08 08:51:22;;;;;;;6.53;2.00;;;8.60;99.90;;;;;;4963105;28;20041;-73
2023/11/08 08:53:49;;;;;;;5.43;2.75;;;8.60;99.90;;;;;;4980637;28;20416;-73
2023/11/08 08:56:15;;;;;;;9.00;4.60;;;8.60;99.90;;;;;;4995777;28;20037;-74
2023/11/08 08:58:41;;;;;;;9.43;3.42;;;8.60;99.90;;;;;;4980289;28;20396;-73
2023/11/08 09:01:10;;;;;;;5.38;2.25;;;8.70;99.90;;;;;;4979197;28;20057;-73
2023/11/08 09:03:37;;;;;;;5.18;2.13;;;8.70;99.90;;;;;;4995950;28;20041;-73
2023/11/08 09:06:04;;;;;;;5.03;1.63;;;8.80;99.90;;;;;;4980347;28;20469;-73
2023/11/08 09:08:31;;;;;;;5.45;2.38;;;8.90;99.90;;;;;;4978634;28;20026;-73
2023/11/08 09:10:57;;;;;;;10.15;2.65;;;9.20;99.90;;;;;;4996725;28;20025;-74
2023/11/08 09:13:23;;;;;;;8.57;3.30;;;9.40;99.90;;;;;;4996929;28;20028;-73
2023/11/08 09:15:50;;;;;;;4.63;2.25;;;9.50;99.90;;;;;;4979905;28;20570;-74
2023/11/08 09:18:16;;;;;;;5.63;2.40;;;9.60;99.90;;;;;;4994969;28;20400;-74
2023/11/08 09:20:44;;;;;;;7.68;4.00;;;9.70;99.90;;;;;;5009185;28;20041;-74
2023/11/08 09:23:11;;;;;;;7.35;3.42;;;9.70;99.90;;;;;;4995772;28;20026;-73
2023/11/08 09:25:38;;;;;;;7.70;3.13;;;9.70;99.90;;;;;;4979399;28;20038;-73
2023/11/08 09:28:04;;;;;;;6.45;2.25;;;9.80;99.90;;;;;;4980782;28;20476;-74
2023/11/08 09:30:33;;;;;;;8.15;2.45;;;9.90;99.90;;;;;;4995119;28;20041;-75
2023/11/08 09:32:59;;;;;;;5.70;1.92;;;10.00;99.90;;;;;;4997375;28;20621;-74
2023/11/08 09:35:26;;;;;;;6.18;1.70;;;10.10;99.90;;;;;;4996433;28;20040;-74
2023/11/08 09:37:55;;;;;;;9.45;3.03;;;10.20;99.90;;;;;;4996306;28;20037;-74
2023/11/08 09:40:21;;;;;;;8.93;1.85;;;10.30;99.90;;;;;;4997535;28;20045;-74
2023/11/08 09:42:48;;;;;;;6.97;2.33;;;10.40;99.90;;;;;;4996878;28;20026;-74
2023/11/08 09:45:17;;;;;;;7.72;1.92;;;10.50;99.90;;;;;;4979433;28;20033;-74
2023/11/08 09:47:44;;;;;;;6.20;1.63;;;10.60;99.90;;;;;;4980687;28;20042;-74
2023/11/08 09:50:14;;;;;;;4.43;1.75;;;10.70;99.90;;;;;;4979345;28;20392;-74
2023/11/08 09:52:41;;;;;;;5.80;2.33;;;10.90;99.90;;;;;;4994970;28;20026;-74
2023/11/08 09:55:10;;;;;;;6.03;2.50;;;11.00;99.90;;;;;;4998582;28;20461;-74
2023/11/08 09:57:36;;;;;;;5.45;1.77;;;11.10;99.90;;;;;;4980005;28;20401;-74
2023/11/08 10:00:03;;;;;;;5.75;2.17;;;11.10;99.90;;;;;;4995367;28;20038;-74
2023/11/08 10:02:40;;;;;;;8.25;2.35;;;11.10;99.90;;;;;;4995286;28;20507;-74
2023/11/08 10:05:07;;;;;;;6.18;1.88;;;11.20;99.90;;;;;;4962972;28;20396;-73
2023/11/08 10:07:37;;;;;;;5.93;2.10;;;11.40;99.90;;;;;;4998341;28;20049;-74
2023/11/08 10:10:06;;;;;;;8.77;2.25;;;11.70;99.90;;;;;;4997834;28;20528;-74
2023/11/08 10:12:43;;;;;;;6.07;1.58;;;11.80;99.90;;;;;;4996187;28;20488;-74
2023/11/08 10:15:11;;;;;;;7.18;1.50;;;11.90;99.90;;;;;;4995463;28;20041;-74
2023/11/08 10:17:40;;;;;;;5.97;1.60;;;11.90;99.90;;;;;;4979271;28;20559;-74
2023/11/08 10:20:08;;;;;;;4.60;1.63;;;11.90;99.90;;;;;;5026811;28;20064;-73
2023/11/08 10:22:36;;;;;;;7.40;1.63;;;11.90;99.90;;;;;;4997679;28;20046;-74
2023/11/08 10:25:04;;;;;;;6.40;1.50;;;11.90;99.90;;;;;;4996682;28;20376;-73
2023/11/08 10:27:32;;;;;;;9.68;2.08;;;11.80;99.90;;;;;;4998471;28;20047;-74
2023/11/08 10:30:12;;;;;;;8.13;2.15;;;11.80;99.90;;;;;;4997786;28;20496;-75
2023/11/08 10:32:39;;;;;;;5.05;1.60;;;11.80;99.90;;;;;;4978990;28;20038;-74
2023/11/08 10:35:22;;;;;;;4.45;0.90;;;11.80;99.90;;;;;;4996854;28;20033;-74
2023/11/08 10:37:49;;;;;;;4.95;1.60;;;11.80;99.90;;;;;;4978948;28;20038;-74
2023/11/08 10:40:17;;;;;;;5.45;1.13;;;11.80;99.90;;;;;;4995796;28;20108;-74
2023/11/08 10:42:51;;;;;;;6.75;2.05;;;11.80;99.90;;;;;;5008450;28;20493;-74
2023/11/08 10:45:21;;;;;;;5.63;1.35;;;11.80;99.90;;;;;;4979646;28;20034;-74
2023/11/08 10:47:48;;;;;;;6.28;1.23;;;11.80;99.90;;;;;;4979785;28;20030;-72
2023/11/08 10:50:16;;;;;;;5.30;0.98;;;11.70;99.90;;;;;;4994755;28;20037;-72
2023/11/08 10:52:48;;;;;;;4.93;1.02;;;11.70;99.90;;;;;;4998549;28;20037;-72
2023/11/08 10:55:15;;;;;;;5.13;1.35;;;11.70;99.90;;;;;;5026417;28;20285;-72
2023/11/08 10:57:53;;;;;;;7.00;1.52;;;11.60;99.90;;;;;;4978014;28;23013;-72
2023/11/08 11:00:21;;;;;;;5.60;1.48;;;11.60;99.90;;;;;;4976964;28;20500;-75
2023/11/08 11:02:53;;;;;;;8.55;1.40;;;11.60;99.90;;;;;;5010380;28;20045;-74
2023/11/08 11:05:22;;;;;;;5.00;1.55;;;11.60;99.90;;;;;;4964649;28;20488;-74
2023/11/08 11:07:49;;;;;;;9.23;1.92;;;11.60;99.90;;;;;;5000578;28;20026;-74
2023/11/08 11:10:18;;;;;;;6.85;1.50;;;11.60;99.90;;;;;;4999238;28;20025;-74
2023/11/08 11:13:03;;;;;;;7.03;2.08;;;11.60;99.90;;;;;;4998064;28;20072;-74
2023/11/08 11:15:38;;;;;;;7.43;1.63;;;11.60;99.90;;;;;;4998319;28;20513;-75
2023/11/08 11:18:11;;;;;;;5.25;1.20;;;11.60;99.90;;;;;;5000282;28;20697;-75
2023/11/08 11:20:39;;;;;;;;;;;11.70;99.90;;;;;;4996456;28;20044;-74
2023/11/08 11:23:28;;;;;;;3.50;0.90;;;11.60;99.90;;;;;;4997903;28;19936;-75
2023/11/08 11:25:54;;;;;;;4.65;1.20;;;11.60;99.90;;;;;;5014035;28;20029;-74
2023/11/08 11:28:53;;;;;;;5.32;1.10;;;11.60;99.90;;;;;;4997940;28;20025;-74
2023/11/08 11:31:42;;;;;;;4.65;1.17;;;11.50;99.90;;;;;;4997231;28;20042;-74
2023/11/08 11:34:20;;;;;;;5.28;0.98;;;11.40;99.90;;;;;;4980871;28;20034;-74
2023/11/08 11:37:11;;;;;;;5.30;1.48;;;11.40;99.90;;;;;;5012314;28;20034;-74
2023/11/08 11:40:08;;;;;;;4.38;1.13;;;11.40;99.90;;;;;;4998298;28;20039;-74
2023/11/08 11:42:35;;;;;;;8.40;0.98;;;11.40;99.90;;;;;;5030764;28;20037;-74
2023/11/08 11:45:08;;;;;;;4.93;1.20;;;11.50;99.90;;;;;;4998920;28;20041;-73
2023/11/08 11:47:36;;;;;;;6.75;1.33;;;11.60;99.90;;;;;;4982000;28;20393;-74
2023/11/08 11:50:05;;;;;;;6.03;1.00;;;11.70;99.90;;;;;;4982138;28;20042;-73
2023/11/08 11:52:34;;;;;;;6.88;1.45;;;11.70;99.90;;;;;;4981470;28;20117;-73
2023/11/08 11:55:03;;;;;;;5.13;2.20;;;11.80;99.90;;;;;;5029440;28;20038;-75
2023/11/08 11:57:37;;;;;;;6.53;2.13;;;11.80;99.90;;;;;;4998718;28;20038;-74
2023/11/08 12:00:09;;;;;;;5.35;1.40;;;11.90;99.90;;;;;;4998355;28;20038;-74
2023/11/08 12:02:35;;;;;;;6.40;1.10;;;12.00;99.90;;;;;;4985265;28;20408;-74
2023/11/08 12:05:03;;;;;;;3.58;0.80;;;12.20;99.90;;;;;;4983806;28;20108;-74
2023/11/08 12:07:33;;;;;;;2.58;0.60;;;12.20;99.90;;;;;;4967031;28;20033;-74
2023/11/08 12:10:10;;;;;;;7.82;1.20;;;12.40;99.90;;;;;;4998254;28;20042;-73
2023/11/08 12:12:38;;;;;;;9.10;1.20;;;12.50;99.90;;;;;;4981200;28;20057;-73
2023/11/08 12:15:18;;;;;;;13.27;4.25;;;12.50;99.90;;;;;;4996522;28;20702;-75
2023/11/08 12:18:05;;;;;;;14.23;7.03;;;12.50;99.90;;;;;;4992820;28;20588;-73
2023/11/08 12:20:40;;;;;;;10.20;3.67;;;12.50;99.90;;;;;;5012307;28;20041;-75
2023/11/08 12:23:07;;;;;;;7.93;1.55;;;12.50;99.90;;;;;;4997305;28;20050;-74
2023/11/08 12:25:39;;;;;;;4.05;0.90;;;12.50;99.90;;;;;;4982906;28;20426;-75
2023/11/08 12:28:06;;;;;;;3.47;0.75;;;12.60;99.90;;;;;;4982945;28;20528;-74
2023/11/08 12:30:33;;;;;;;4.78;1.27;;;12.60;99.90;;;;;;4979951;28;20048;-74
2023/11/08 12:33:00;;;;;;;4.90;0.90;;;12.70;99.90;;;;;;5015183;28;20081;-74
2023/11/08 12:35:28;;;;;;;6.60;1.10;;;12.70;99.90;;;;;;4999048;28;20034;-75
2023/11/08 12:37:58;;;;;;;3.75;0.88;;;12.70;99.90;;;;;;4997930;28;20030;-74
2023/11/08 12:40:27;;;;;;;7.55;1.33;;;12.70;99.90;;;;;;4998094;28;20049;-74
2023/11/08 12:42:53;;;;;;;5.32;0.60;;;12.60;99.90;;;;;;4997418;28;20030;-75
2023/11/08 12:45:30;;;;;;;2.58;0.65;;;12.50;99.90;;;;;;4998709;28;20503;-74
2023/11/08 12:48:04;;;;;;;3.47;0.82;;;12.50;99.90;;;;;;4982442;28;20033;-75
2023/11/08 12:50:35;;;;;;;3.05;0.80;;;12.40;99.90;;;;;;4980883;28;20042;-74
2023/11/08 12:53:07;;;;;;;3.40;0.82;;;12.50;99.90;;;;;;4996165;28;20045;-74
2023/11/08 12:55:43;;;;;;;3.17;0.65;;;12.50;99.90;;;;;;4997810;28;20037;-75
2023/11/08 12:58:23;;;;;;;6.05;0.60;;;12.40;99.90;;;;;;4964309;28;20045;-74